createdAt,value
2018-09-26T00:00:39.357Z,7.40
2018-09-26T00:03:27.062Z,7.50
2018-09-26T00:05:54.037Z,7.50
2018-09-26T00:08:21.394Z,7.50
2018-09-26T00:10:48.646Z,7.50
2018-09-26T00:13:16.758Z,7.40
2018-09-26T00:15:43.837Z,7.50
2018-09-26T00:18:11.128Z,7.50
2018-09-26T00:20:38.147Z,7.60
2018-09-26T00:23:05.305Z,7.60
2018-09-26T00:25:32.548Z,7.60
2018-09-26T00:27:59.522Z,7.60
2018-09-26T00:30:26.514Z,7.50
2018-09-26T00:32:53.591Z,7.50
2018-09-26T00:35:20.601Z,7.40
2018-09-26T05:42:02.599Z,7.40
2018-09-26T05:44:29.674Z,7.00
2018-09-26T05:46:56.711Z,7.00
2018-09-26T05:49:23.730Z,7.10
2018-09-26T06:55:37.441Z,7.10
2018-09-26T06:58:04.428Z,8.60
2018-09-26T07:00:31.392Z,8.60
2018-09-26T07:02:58.701Z,8.60
2018-09-26T07:05:25.707Z,8.60
2018-09-26T07:07:52.729Z,8.60
2018-09-26T07:10:19.666Z,8.70
2018-09-26T07:12:46.646Z,8.70
2018-09-26T07:15:13.674Z,8.70
2018-09-26T07:17:41.053Z,8.70
2018-09-26T07:20:08.023Z,8.90
2018-09-26T09:35:30.471Z,9.10
2018-09-26T09:45:18.764Z,15.90
2018-09-26T09:47:46.019Z,16.70
2018-09-26T09:50:13.141Z,17.10
2018-09-26T09:52:40.212Z,17.20
2018-09-26T09:55:07.638Z,16.70
2018-09-26T09:57:34.641Z,16.90
2018-09-26T10:00:01.711Z,17.50
2018-09-26T10:02:28.894Z,17.10
2018-09-26T11:21:00.653Z,17.20
2018-09-26T11:25:54.809Z,19.20
2018-09-26T11:30:48.913Z,19.30
2018-09-26T11:33:15.949Z,18.20
2018-09-26T11:35:42.998Z,18.20
2018-09-26T11:38:10.210Z,18.70
2018-09-26T11:40:37.202Z,19.20
2018-09-26T11:43:04.259Z,18.80
2018-09-26T11:45:31.249Z,19.00
2018-09-26T11:47:58.294Z,19.10
2018-09-26T11:50:25.322Z,19.40
2018-09-26T11:52:52.739Z,19.20
2018-09-26T11:57:46.951Z,19.90
2018-09-26T12:02:41.454Z,20.70
2018-09-26T12:05:08.522Z,20.20
2018-09-26T12:07:35.652Z,20.10
2018-09-26T12:19:52.218Z,20.40
2018-09-26T12:22:19.844Z,18.70
2018-09-26T12:24:46.843Z,18.50
2018-09-26T12:27:13.827Z,18.30
2018-09-26T12:29:41.212Z,18.20
2018-09-26T12:32:08.309Z,18.40
2018-09-26T12:34:35.294Z,18.30
2018-09-26T12:37:02.449Z,18.10
2018-09-26T12:39:29.460Z,18.10
2018-09-26T12:41:56.443Z,18.50
2018-09-26T12:44:23.767Z,18.50
2018-09-26T12:46:50.869Z,18.60
2018-09-26T12:49:17.955Z,17.90
2018-09-26T12:51:45.246Z,18.00
2018-09-26T12:54:12.224Z,18.00
2018-09-26T12:56:39.204Z,17.90
2018-09-26T12:59:06.250Z,18.00
2018-09-26T13:01:33.291Z,18.20
2018-09-26T13:04:00.229Z,18.10
2018-09-26T13:06:27.288Z,17.90
2018-09-26T13:08:56.526Z,18.60
2018-09-26T13:11:23.673Z,18.80
2018-09-26T13:13:50.682Z,18.50
2018-09-26T13:16:17.833Z,18.50
2018-09-26T13:18:44.905Z,18.70
2018-09-26T13:21:11.906Z,18.40
2018-09-26T13:23:39.194Z,18.50
2018-09-26T13:26:06.527Z,18.40
2018-09-26T13:28:33.555Z,18.80
2018-09-26T13:31:00.585Z,18.30
2018-09-26T13:33:27.548Z,18.20
2018-09-26T13:35:54.925Z,18.20
2018-09-26T13:38:22.009Z,18.70
2018-09-26T13:40:48.949Z,18.90
2018-09-26T13:43:19.355Z,18.40
2018-09-26T13:45:46.449Z,18.30
2018-09-26T13:48:13.504Z,18.50
2018-09-26T13:50:40.533Z,18.30
2018-09-26T13:53:07.534Z,18.50
2018-09-26T13:55:34.596Z,18.00
2018-09-26T13:58:01.700Z,18.20
2018-09-26T14:00:28.778Z,18.50
2018-09-26T14:02:55.788Z,18.30
2018-09-26T14:05:22.838Z,18.20
2018-09-26T14:07:49.973Z,18.20
2018-09-26T14:10:16.995Z,18.10
2018-09-26T14:12:44.443Z,17.80
2018-09-26T14:15:11.457Z,17.70
2018-09-26T14:17:38.522Z,17.70
2018-09-26T14:20:05.912Z,17.90
2018-09-26T14:22:32.947Z,18.30
2018-09-26T14:25:00.016Z,18.40
2018-09-26T14:27:27.201Z,18.30
2018-09-26T14:29:54.257Z,18.50
2018-09-26T14:32:21.347Z,18.30
2018-09-26T14:34:48.396Z,18.30
2018-09-26T14:37:15.361Z,18.10
2018-09-26T14:39:42.384Z,18.00
2018-09-26T14:42:09.748Z,18.00
2018-09-26T14:44:36.759Z,17.80
2018-09-26T14:47:03.696Z,17.70
2018-09-26T14:49:30.881Z,17.80
2018-09-26T14:51:59.099Z,18.00
2018-09-26T14:54:26.067Z,18.00
2018-09-26T14:56:53.341Z,18.20
2018-09-26T14:59:20.302Z,18.30
2018-09-26T15:01:47.325Z,17.90
2018-09-26T15:04:14.625Z,17.80
2018-09-26T15:06:41.690Z,17.80
2018-09-26T15:09:08.629Z,17.80
2018-09-26T15:11:38.716Z,17.60
2018-09-26T15:14:06.099Z,17.50
2018-09-26T15:16:33.099Z,17.60
2018-09-26T15:19:00.404Z,17.50
2018-09-26T15:21:27.584Z,17.50
2018-09-26T15:23:54.616Z,17.50
2018-09-26T15:26:21.686Z,17.40
2018-09-26T15:28:50.919Z,17.40
2018-09-26T15:31:18.069Z,17.50
2018-09-26T15:33:45.111Z,17.30
2018-09-26T15:36:12.105Z,17.30
2018-09-26T15:38:39.166Z,17.30
2018-09-26T15:41:06.501Z,17.30
2018-09-26T15:43:33.477Z,17.20
2018-09-26T15:55:49.262Z,17.10
2018-09-26T15:58:16.386Z,16.80
2018-09-26T16:00:43.350Z,16.70
2018-09-26T16:03:10.369Z,16.70
2018-09-26T16:05:37.317Z,16.60
2018-09-26T16:08:06.172Z,16.60
2018-09-26T16:10:33.319Z,16.50
2018-09-26T16:13:00.324Z,16.50
2018-09-26T16:15:27.271Z,16.50
2018-09-26T16:17:54.539Z,16.50
2018-09-26T16:20:21.572Z,16.50
2018-09-26T16:22:48.948Z,16.50
2018-09-26T16:25:16.583Z,16.40
2018-09-26T16:27:43.644Z,16.40
2018-09-26T16:30:11.088Z,16.30
2018-09-26T16:32:38.207Z,16.30
2018-09-26T16:35:05.517Z,16.30
2018-09-26T16:37:32.524Z,16.20
2018-09-26T16:39:59.817Z,16.20
2018-09-26T16:42:26.851Z,16.10
2018-09-26T16:44:53.943Z,16.10
2018-09-26T16:47:21.437Z,16.00
2018-09-26T16:49:48.799Z,16.00
2018-09-26T16:52:15.947Z,15.90
2018-09-26T16:54:43.724Z,15.80
2018-09-26T16:57:10.700Z,15.80
2018-09-26T16:59:38.090Z,15.70
2018-09-26T17:02:06.204Z,15.70
2018-09-26T17:04:33.681Z,15.50
2018-09-26T17:07:00.701Z,15.50
2018-09-26T17:09:27.850Z,15.40
2018-09-26T17:11:54.820Z,15.40
2018-09-26T17:14:21.812Z,15.30
2018-09-26T17:16:49.110Z,15.30
2018-09-26T17:19:16.132Z,15.30
2018-09-26T17:21:43.183Z,15.30
2018-09-26T17:24:10.290Z,15.40
2018-09-26T17:26:37.442Z,15.50
2018-09-26T17:29:04.778Z,15.50
2018-09-26T17:31:31.772Z,15.60
2018-09-26T17:33:58.757Z,15.60
2018-09-26T17:36:25.825Z,15.60
2018-09-26T17:38:53.336Z,15.60
2018-09-26T17:41:20.558Z,15.60
2018-09-26T17:43:47.634Z,15.60
2018-09-26T17:46:14.772Z,15.60
2018-09-26T17:48:41.802Z,15.60
2018-09-26T17:51:08.886Z,15.60
2018-09-26T17:53:36.683Z,15.60
2018-09-26T17:56:03.688Z,15.60
2018-09-26T17:58:30.938Z,15.60
2018-09-26T18:00:58.492Z,15.60
2018-09-26T18:03:25.751Z,15.60
2018-09-26T18:05:52.789Z,15.60
2018-09-26T18:08:20.006Z,15.60
2018-09-26T18:10:47.176Z,15.60
2018-09-26T18:13:14.333Z,15.60
2018-09-26T18:15:41.513Z,15.60
2018-09-26T18:18:08.771Z,15.60
2018-09-26T18:20:35.908Z,15.60
2018-09-26T18:23:04.266Z,15.60
2018-09-26T18:25:31.348Z,15.60
2018-09-26T18:27:58.425Z,15.60
2018-09-26T18:30:25.710Z,15.60
2018-09-26T18:32:52.805Z,15.60
2018-09-26T18:35:19.891Z,15.60
2018-09-26T18:37:47.074Z,15.60
2018-09-26T18:40:14.262Z,15.60
2018-09-26T18:42:41.357Z,15.60
2018-09-26T18:45:08.646Z,15.60
2018-09-26T18:47:35.919Z,15.70
2018-09-26T18:50:03.110Z,15.70
2018-09-26T18:52:30.282Z,15.70
2018-09-26T18:54:57.465Z,15.70
2018-09-26T18:57:24.596Z,15.70
2018-09-26T18:59:51.730Z,15.70
2018-09-26T19:02:18.851Z,15.70
2018-09-26T19:04:46.162Z,15.60
2018-09-26T19:07:13.693Z,15.60
2018-09-26T19:09:40.810Z,15.60
2018-09-26T19:12:08.128Z,15.60
2018-09-26T19:14:35.356Z,15.60
2018-09-26T19:17:02.765Z,15.60
2018-09-26T19:22:09.126Z,15.60
2018-09-26T19:24:36.200Z,15.60
2018-09-26T19:27:03.357Z,15.60
2018-09-26T19:29:30.743Z,15.60
2018-09-26T19:31:57.806Z,15.60
2018-09-26T19:34:24.944Z,15.60
2018-09-26T19:36:52.079Z,15.60
2018-09-26T19:39:19.159Z,15.50
2018-09-26T19:41:46.223Z,15.50
2018-09-26T19:44:13.619Z,15.40
2018-09-26T19:46:40.808Z,15.40
2018-09-26T19:49:07.930Z,15.30
2018-09-26T19:51:35.489Z,15.40
2018-09-26T19:54:02.674Z,15.30
2018-09-26T19:56:29.799Z,15.30
2018-09-26T19:58:57.254Z,15.40
2018-09-26T20:01:24.558Z,15.40
2018-09-26T20:03:51.580Z,15.40
2018-09-26T20:06:18.638Z,15.40
2018-09-26T20:08:45.665Z,15.40
2018-09-26T20:11:12.847Z,15.40
2018-09-26T20:13:40.209Z,15.40
2018-09-26T20:16:07.464Z,15.40
2018-09-26T20:18:34.493Z,15.40
2018-09-26T20:21:01.874Z,15.40
2018-09-26T20:23:29.081Z,15.50
2018-09-26T20:25:56.259Z,15.50
2018-09-26T20:28:23.757Z,15.40
2018-09-26T20:30:50.878Z,15.40
2018-09-26T20:33:17.943Z,15.40
2018-09-26T20:35:45.090Z,15.40
2018-09-26T20:38:12.251Z,15.40
2018-09-26T20:40:39.432Z,15.40
2018-09-26T20:43:06.881Z,15.40
2018-09-26T20:45:33.983Z,15.50
2018-09-26T20:48:01.042Z,15.50
2018-09-26T20:50:28.241Z,15.40
2018-09-26T20:52:55.291Z,15.40
2018-09-26T20:55:22.392Z,15.40
2018-09-26T20:57:49.818Z,15.40
2018-09-26T21:00:16.884Z,15.30
2018-09-26T21:02:43.998Z,15.30
2018-09-26T21:05:11.360Z,15.40
2018-09-26T21:07:38.492Z,15.30
2018-09-26T21:10:05.670Z,15.30
2018-09-26T21:12:32.770Z,15.40
2018-09-26T21:15:00.105Z,15.30
2018-09-26T21:17:27.367Z,15.30
2018-09-26T21:19:54.792Z,15.40
2018-09-26T21:22:21.810Z,15.40
2018-09-26T21:24:48.907Z,15.30
2018-09-26T21:27:16.224Z,15.30
2018-09-26T21:29:43.354Z,15.30
2018-09-26T21:32:12.536Z,15.20
2018-09-26T21:34:39.686Z,15.20
2018-09-26T21:37:06.819Z,15.20
2018-09-26T21:39:34.002Z,15.20
2018-09-26T21:42:01.618Z,15.20
2018-09-26T21:44:28.604Z,15.10
2018-09-26T21:46:55.722Z,15.10
2018-09-26T21:49:22.939Z,15.10
2018-09-26T21:51:50.054Z,15.10
2018-09-26T21:54:17.167Z,15.10
2018-09-26T21:56:44.635Z,15.10
2018-09-26T21:59:11.782Z,15.10
2018-09-26T22:01:38.990Z,15.10
2018-09-26T22:04:06.810Z,15.10
2018-09-26T22:06:33.963Z,15.10
2018-09-26T22:09:01.142Z,15.10
2018-09-26T22:11:28.205Z,15.10
2018-09-26T22:13:55.254Z,15.10
2018-09-26T22:16:22.357Z,15.10
2018-09-26T22:18:49.776Z,15.10
2018-09-26T22:21:16.810Z,15.20
2018-09-26T22:23:43.932Z,15.20
2018-09-26T22:26:11.020Z,15.20
2018-09-26T22:28:38.207Z,15.30
2018-09-26T22:31:05.542Z,15.30
2018-09-26T22:33:32.959Z,15.30
2018-09-26T22:36:00.062Z,15.30
2018-09-26T22:38:27.203Z,15.30
2018-09-26T22:40:54.429Z,15.30
2018-09-26T22:43:21.569Z,15.30
2018-09-26T22:45:48.773Z,15.40
2018-09-26T22:48:15.879Z,15.40
2018-09-26T22:50:43.048Z,15.30
2018-09-26T22:53:10.096Z,15.30
2018-09-26T22:55:37.433Z,15.30
2018-09-26T22:58:04.987Z,15.30
2018-09-26T23:00:32.060Z,15.30
2018-09-26T23:02:59.492Z,15.40
2018-09-26T23:05:26.649Z,15.40
2018-09-26T23:07:53.884Z,15.30
2018-09-26T23:10:20.919Z,15.30
2018-09-26T23:12:49.031Z,15.30
2018-09-26T23:15:16.100Z,15.20
2018-09-26T23:17:43.536Z,15.10
2018-09-26T23:20:10.595Z,15.10
2018-09-26T23:22:37.718Z,15.00
2018-09-26T23:25:04.867Z,15.00
2018-09-26T23:27:31.905Z,15.00
2018-09-26T23:29:58.987Z,15.00
2018-09-26T23:32:26.454Z,15.00
2018-09-26T23:34:53.724Z,15.00
2018-09-26T23:37:20.838Z,15.00
2018-09-26T23:39:47.922Z,15.10
2018-09-26T23:42:15.029Z,15.00
2018-09-26T23:44:43.179Z,15.00
2018-09-26T23:47:10.337Z,15.00
2018-09-26T23:49:37.430Z,15.00
2018-09-26T23:52:04.550Z,15.00
2018-09-26T23:54:31.958Z,15.00
2018-09-26T23:56:59.219Z,15.00
2018-09-26T23:59:26.432Z,15.00
